Time;durP1;ratioP1;P1;durP2;ratioP2;P2;SDS_P1;SDS_P2;PMS_P1;PMS_P2;Temp;Humidity;BMP_temperature;BMP_pressure;BME280_temperature;BME280_humidity;BME280_pressure;Samples;Min_cycle;Max_cycle;Signal;HPM_P1;HPM_P2
2023/08/27 00:02:23;;;;;;;0.80;0.80;;;;;;;;;;5076351;28;20052;-26
2023/08/27 00:04:49;;;;;;;1.15;1.15;;;;;;;;;;5076348;28;20095;-20
2023/08/27 00:07:16;;;;;;;0.95;0.95;;;;;;;;;;5076575;28;20440;-22
2023/08/27 00:09:42;;;;;;;1.10;1.10;;;;;;;;;;5076532;28;20016;-23
2023/08/27 00:12:08;;;;;;;1.00;1.00;;;;;;;;;;5076164;28;20024;-22
2023/08/27 00:14:34;;;;;;;1.05;1.05;;;;;;;;;;5076448;28;20047;-22
2023/08/27 00:17:03;;;;;;;2.03;1.92;;;;;;;;;;5076028;28;20033;-23
2023/08/27 00:19:29;;;;;;;0.88;0.88;;;;;;;;;;5076302;28;20081;-21
2023/08/27 00:21:55;;;;;;;1.00;1.00;;;;;;;;;;5076194;28;20024;-23
2023/08/27 00:24:21;;;;;;;1.20;1.08;;;;;;;;;;5076256;28;20016;-25
2023/08/27 00:26:47;;;;;;;1.00;1.00;;;;;;;;;;5075998;28;20028;-21
2023/08/27 00:29:16;;;;;;;0.90;0.90;;;;;;;;;;5075879;28;20044;-21
2023/08/27 00:31:44;;;;;;;0.95;0.95;;;;;;;;;;5076110;28;20038;-22
2023/08/27 00:34:10;;;;;;;1.15;1.15;;;;;;;;;;5075657;28;20443;-23
2023/08/27 00:36:36;;;;;;;0.82;0.82;;;;;;;;;;5075632;28;20032;-20
2023/08/27 00:39:02;;;;;;;1.23;1.23;;;;;;;;;;5074054;28;20025;-22
2023/08/27 00:41:30;;;;;;;0.63;0.63;;;;;;;;;;5075402;28;20055;-26
2023/08/27 00:43:56;;;;;;;1.20;1.15;;;;;;;;;;5075494;28;20032;-22
2023/08/27 00:46:22;;;;;;;1.00;1.00;;;;;;;;;;5075795;28;20036;-22
2023/08/27 00:48:49;;;;;;;1.13;1.02;;;;;;;;;;5075735;28;20024;-20
2023/08/27 00:51:15;;;;;;;1.10;1.10;;;;;;;;;;5075970;28;20035;-23
2023/08/27 00:53:42;;;;;;;0.80;0.80;;;;;;;;;;5075571;28;20078;-22
2023/08/27 00:56:08;;;;;;;1.08;1.02;;;;;;;;;;5075041;28;20123;-22
2023/08/27 00:58:34;;;;;;;1.15;1.05;;;;;;;;;;5075557;28;20021;-19
2023/08/27 01:01:00;;;;;;;1.00;1.00;;;;;;;;;;5075527;28;20024;-20
2023/08/27 01:03:26;;;;;;;0.80;0.80;;;;;;;;;;5075353;28;20123;-23
2023/08/27 01:05:53;;;;;;;0.90;0.90;;;;;;;;;;5075430;28;20028;-23
2023/08/27 01:08:19;;;;;;;1.38;1.27;;;;;;;;;;5075112;28;20024;-22
2023/08/27 01:10:49;;;;;;;0.73;0.73;;;;;;;;;;5075398;28;20462;-19
2023/08/27 01:13:19;;;;;;;0.88;0.88;;;;;;;;;;5075214;28;20378;-27
2023/08/27 01:15:45;;;;;;;1.10;1.10;;;;;;;;;;5075556;28;20081;-24
2023/08/27 01:18:13;;;;;;;0.77;0.77;;;;;;;;;;5074995;28;20032;-22
2023/08/27 01:20:39;;;;;;;0.77;0.77;;;;;;;;;;5075237;28;20374;-22
2023/08/27 01:23:05;;;;;;;0.70;0.70;;;;;;;;;;5074785;28;20024;-22
2023/08/27 01:25:43;;;;;;;0.65;0.65;;;;;;;;;;5073948;28;20048;-24
2023/08/27 01:28:17;;;;;;;0.70;0.70;;;;;;;;;;5075100;28;20059;-23
2023/08/27 01:30:56;;;;;;;1.02;0.90;;;;;;;;;;5073862;28;20093;-20
2023/08/27 01:33:26;;;;;;;0.77;0.77;;;;;;;;;;5074797;28;20108;-22
2023/08/27 01:35:52;;;;;;;0.90;0.90;;;;;;;;;;5074607;28;20041;-19
2023/08/27 01:38:18;;;;;;;0.73;0.73;;;;;;;;;;5074980;28;20177;-23
2023/08/27 01:40:44;;;;;;;1.02;1.02;;;;;;;;;;5074663;28;20025;-22
2023/08/27 01:43:10;;;;;;;0.65;0.65;;;;;;;;;;5074818;28;20024;-21
2023/08/27 01:45:36;;;;;;;0.85;0.82;;;;;;;;;;5074831;28;20094;-22
2023/08/27 01:48:03;;;;;;;1.23;1.15;;;;;;;;;;5074609;28;20329;-21
2023/08/27 01:50:29;;;;;;;0.85;0.85;;;;;;;;;;5073476;28;20024;-24
2023/08/27 01:52:55;;;;;;;0.80;0.80;;;;;;;;;;5074759;28;20020;-18
2023/08/27 01:55:21;;;;;;;0.90;0.90;;;;;;;;;;5074424;28;20513;-24
2023/08/27 01:57:47;;;;;;;0.70;0.70;;;;;;;;;;5074782;28;20032;-24
2023/08/27 02:00:16;;;;;;;0.70;0.70;;;;;;;;;;5074486;28;20462;-26
2023/08/27 02:02:43;;;;;;;0.95;0.95;;;;;;;;;;5074638;28;20025;-21
2023/08/27 02:05:09;;;;;;;0.82;0.82;;;;;;;;;;5074406;28;20085;-25
2023/08/27 02:07:37;;;;;;;1.05;1.05;;;;;;;;;;5074681;28;20108;-22
2023/08/27 02:10:03;;;;;;;1.00;1.00;;;;;;;;;;5074396;28;20074;-25
2023/08/27 02:12:29;;;;;;;1.00;1.00;;;;;;;;;;5074456;28;20333;-19
2023/08/27 02:14:55;;;;;;;0.90;0.90;;;;;;;;;;5074274;28;20028;-25
2023/08/27 02:17:21;;;;;;;0.90;0.90;;;;;;;;;;5074305;28;20052;-21
2023/08/27 02:19:47;;;;;;;0.70;0.70;;;;;;;;;;5074281;28;20065;-22
2023/08/27 02:22:14;;;;;;;0.70;0.70;;;;;;;;;;5074428;28;20099;-24
2023/08/27 02:24:40;;;;;;;0.95;0.95;;;;;;;;;;5074260;28;20376;-23
2023/08/27 02:27:06;;;;;;;1.05;1.05;;;;;;;;;;5073241;28;20031;-23
2023/08/27 02:29:33;;;;;;;0.77;0.77;;;;;;;;;;5074453;28;20337;-23
2023/08/27 02:31:59;;;;;;;0.60;0.60;;;;;;;;;;5074074;28;20036;-20
2023/08/27 02:34:25;;;;;;;0.80;0.80;;;;;;;;;;5074431;28;20406;-23
2023/08/27 02:36:51;;;;;;;0.77;0.77;;;;;;;;;;5074341;28;20067;-26
2023/08/27 02:39:17;;;;;;;1.10;1.00;;;;;;;;;;5074359;28;20067;-22
2023/08/27 02:41:43;;;;;;;0.80;0.80;;;;;;;;;;5074098;28;20112;-24
2023/08/27 02:44:09;;;;;;;0.75;0.75;;;;;;;;;;5074220;28;20332;-23
2023/08/27 02:46:35;;;;;;;0.80;0.80;;;;;;;;;;5074316;28;20418;-20
2023/08/27 02:49:02;;;;;;;0.98;0.98;;;;;;;;;;5074285;28;20029;-20
2023/08/27 02:51:28;;;;;;;1.17;1.08;;;;;;;;;;5073976;28;20398;-22
2023/08/27 02:53:55;;;;;;;1.00;1.00;;;;;;;;;;5073872;28;20029;-25
2023/08/27 02:56:21;;;;;;;0.88;0.88;;;;;;;;;;5073690;28;20060;-25
2023/08/27 02:58:50;;;;;;;0.82;0.82;;;;;;;;;;5074179;28;20024;-23
2023/08/27 03:01:20;;;;;;;0.80;0.80;;;;;;;;;;5073952;28;20025;-21
2023/08/27 03:03:49;;;;;;;1.05;1.05;;;;;;;;;;5076442;28;20021;-23
2023/08/27 03:06:15;;;;;;;0.70;0.70;;;;;;;;;;5077471;28;20043;-23
2023/08/27 03:08:41;;;;;;;0.90;0.90;;;;;;;;;;5077494;28;20028;-23
2023/08/27 03:11:07;;;;;;;0.90;0.90;;;;;;;;;;5077411;28;20035;-23
2023/08/27 03:13:34;;;;;;;1.33;1.13;;;;;;;;;;5076311;28;20052;-22
2023/08/27 03:16:00;;;;;;;0.88;0.88;;;;;;;;;;5077255;28;20054;-22
2023/08/27 03:18:29;;;;;;;0.73;0.73;;;;;;;;;;5078026;28;20124;-22
2023/08/27 03:20:55;;;;;;;0.77;0.77;;;;;;;;;;5076257;28;20451;-22
2023/08/27 03:23:21;;;;;;;0.68;0.68;;;;;;;;;;5077116;28;20050;-23
2023/08/27 03:25:51;;;;;;;0.90;0.90;;;;;;;;;;5077373;28;20029;-23
2023/08/27 03:28:17;;;;;;;0.80;0.80;;;;;;;;;;5077052;28;20056;-22
2023/08/27 03:30:43;;;;;;;0.70;0.70;;;;;;;;;;5077325;28;20040;-20
2023/08/27 03:33:09;;;;;;;0.90;0.90;;;;;;;;;;5076929;28;20463;-25
2023/08/27 03:35:36;;;;;;;1.02;0.90;;;;;;;;;;5076835;28;20396;-26
2023/08/27 03:38:02;;;;;;;0.77;0.77;;;;;;;;;;5075949;28;20082;-21
2023/08/27 03:40:30;;;;;;;0.80;0.80;;;;;;;;;;5077155;28;20020;-23
2023/08/27 03:42:56;;;;;;;0.70;0.70;;;;;;;;;;5077011;28;20413;-22
2023/08/27 03:45:22;;;;;;;0.70;0.70;;;;;;;;;;5076753;28;20035;-22
2023/08/27 03:47:48;;;;;;;0.80;0.70;;;;;;;;;;5076701;28;20028;-22
2023/08/27 03:50:14;;;;;;;0.80;0.80;;;;;;;;;;5076931;28;20021;-22
2023/08/27 03:52:40;;;;;;;0.70;0.70;;;;;;;;;;5076559;28;20054;-22
2023/08/27 03:55:06;;;;;;;0.63;0.63;;;;;;;;;;5076527;28;20475;-26
2023/08/27 03:57:33;;;;;;;1.05;1.05;;;;;;;;;;5076525;28;20033;-19
2023/08/27 03:59:59;;;;;;;0.80;0.80;;;;;;;;;;5076515;28;20043;-20
2023/08/27 04:02:25;;;;;;;0.60;0.60;;;;;;;;;;5076653;28;20352;-25
2023/08/27 04:04:51;;;;;;;1.00;0.90;;;;;;;;;;5076414;28;20095;-26
2023/08/27 04:07:17;;;;;;;0.90;0.90;;;;;;;;;;5076571;28;20141;-29
2023/08/27 04:09:43;;;;;;;0.90;0.90;;;;;;;;;;5076580;28;20025;-28
2023/08/27 04:12:10;;;;;;;0.90;0.90;;;;;;;;;;5076419;28;20017;-23
2023/08/27 04:14:36;;;;;;;0.70;0.70;;;;;;;;;;5076156;28;20089;-20
2023/08/27 04:17:02;;;;;;;0.90;0.90;;;;;;;;;;5076326;28;20029;-23
2023/08/27 04:19:28;;;;;;;0.60;0.60;;;;;;;;;;5075115;28;20012;-19
2023/08/27 04:21:54;;;;;;;0.73;0.73;;;;;;;;;;5075895;28;20162;-20
2023/08/27 04:24:22;;;;;;;1.38;0.88;;;;;;;;;;5076253;28;20091;-28
2023/08/27 04:26:48;;;;;;;0.80;0.80;;;;;;;;;;5076212;28;20382;-19
2023/08/27 04:29:15;;;;;;;0.80;0.80;;;;;;;;;;5076157;28;20016;-20
2023/08/27 04:31:43;;;;;;;1.15;1.15;;;;;;;;;;5076109;28;20025;-21
2023/08/27 04:34:09;;;;;;;0.70;0.70;;;;;;;;;;5075720;28;20451;-22
2023/08/27 04:36:35;;;;;;;0.68;0.68;;;;;;;;;;5075623;28;20107;-22
2023/08/27 04:39:01;;;;;;;1.10;1.08;;;;;;;;;;5075633;28;20020;-22
2023/08/27 04:41:27;;;;;;;0.88;0.88;;;;;;;;;;5075648;28;20355;-26
2023/08/27 04:43:53;;;;;;;0.80;0.80;;;;;;;;;;5075537;28;20063;-23
2023/08/27 04:46:19;;;;;;;0.80;0.80;;;;;;;;;;5075849;28;20071;-22
2023/08/27 04:48:46;;;;;;;0.80;0.80;;;;;;;;;;5075762;28;20025;-20
2023/08/27 04:51:14;;;;;;;0.93;0.93;;;;;;;;;;5075472;28;20028;-21
2023/08/27 04:53:40;;;;;;;0.80;0.80;;;;;;;;;;5075642;28;20402;-22
2023/08/27 04:56:06;;;;;;;0.88;0.88;;;;;;;;;;5075249;28;20055;-20
2023/08/27 04:58:33;;;;;;;0.73;0.73;;;;;;;;;;5075859;28;20039;-19
2023/08/27 05:00:59;;;;;;;1.27;0.85;;;;;;;;;;5075266;28;20443;-19
2023/08/27 05:03:25;;;;;;;0.90;0.90;;;;;;;;;;5075183;28;20025;-20
2023/08/27 05:05:55;;;;;;;0.63;0.63;;;;;;;;;;5075459;28;20155;-25
2023/08/27 05:08:21;;;;;;;0.70;0.70;;;;;;;;;;5075081;28;20017;-20
2023/08/27 05:10:47;;;;;;;0.95;0.95;;;;;;;;;;5075121;28;20028;-20
2023/08/27 05:13:13;;;;;;;0.80;0.80;;;;;;;;;;5075109;28;20447;-19
2023/08/27 05:15:40;;;;;;;0.95;0.95;;;;;;;;;;5074911;28;20039;-28
2023/08/27 05:18:06;;;;;;;0.80;0.80;;;;;;;;;;5075287;28;20391;-24
2023/08/27 05:20:32;;;;;;;0.60;0.60;;;;;;;;;;5075217;28;20116;-22
2023/08/27 05:22:58;;;;;;;0.80;0.80;;;;;;;;;;5074998;28;20035;-22
2023/08/27 05:25:24;;;;;;;0.70;0.70;;;;;;;;;;5074478;28;20517;-22
2023/08/27 05:27:50;;;;;;;1.02;1.02;;;;;;;;;;5075087;28;20032;-22
2023/08/27 05:30:16;;;;;;;0.70;0.70;;;;;;;;;;5073876;28;20039;-18
2023/08/27 05:32:43;;;;;;;0.75;0.75;;;;;;;;;;5074680;28;20509;-20
2023/08/27 05:35:09;;;;;;;0.80;0.80;;;;;;;;;;5074972;28;20427;-27
2023/08/27 05:37:36;;;;;;;0.90;0.90;;;;;;;;;;5074716;28;20024;-23
2023/08/27 05:40:03;;;;;;;0.60;0.60;;;;;;;;;;5075010;28;20052;-23
2023/08/27 05:42:29;;;;;;;0.80;0.80;;;;;;;;;;5073781;28;20033;-26
2023/08/27 05:44:55;;;;;;;2.28;0.70;;;;;;;;;;5074600;28;20024;-23
2023/08/27 05:47:21;;;;;;;1.60;1.02;;;;;;;;;;5074616;28;20039;-23
2023/08/27 05:49:47;;;;;;;0.60;0.60;;;;;;;;;;5074599;28;20020;-24
2023/08/27 05:52:13;;;;;;;0.73;0.73;;;;;;;;;;5074518;28;20025;-21
2023/08/27 05:54:40;;;;;;;0.90;0.90;;;;;;;;;;5074567;28;20049;-18
2023/08/27 05:57:06;;;;;;;0.70;0.70;;;;;;;;;;5074727;28;20028;-22
2023/08/27 05:59:32;;;;;;;1.08;1.08;;;;;;;;;;5074759;28;20401;-19
2023/08/27 06:01:59;;;;;;;0.70;0.70;;;;;;;;;;5074650;28;20020;-25
2023/08/27 06:04:25;;;;;;;0.93;0.93;;;;;;;;;;5074409;28;20029;-23
2023/08/27 06:06:51;;;;;;;0.70;0.70;;;;;;;;;;5074742;28;20440;-22
2023/08/27 06:09:18;;;;;;;0.95;0.95;;;;;;;;;;5074642;28;20044;-27
2023/08/27 06:11:44;;;;;;;1.10;1.00;;;;;;;;;;5074615;28;20509;-22
2023/08/27 06:14:10;;;;;;;0.70;0.70;;;;;;;;;;5074321;28;20078;-22
2023/08/27 06:16:36;;;;;;;0.88;0.88;;;;;;;;;;5074299;28;20391;-19
2023/08/27 06:19:02;;;;;;;0.90;0.90;;;;;;;;;;5074580;28;20021;-22
2023/08/27 06:21:28;;;;;;;0.77;0.77;;;;;;;;;;5074240;28;20507;-29
2023/08/27 06:23:54;;;;;;;0.90;0.90;;;;;;;;;;5074463;28;20117;-23
2023/08/27 06:26:21;;;;;;;1.00;1.00;;;;;;;;;;5074260;28;20029;-23
2023/08/27 06:28:47;;;;;;;0.85;0.80;;;;;;;;;;5074463;28;20039;-24
2023/08/27 06:31:13;;;;;;;0.80;0.80;;;;;;;;;;5074238;28;20074;-21
2023/08/27 06:33:39;;;;;;;0.85;0.85;;;;;;;;;;5073129;28;20028;-25
2023/08/27 06:36:06;;;;;;;0.88;0.88;;;;;;;;;;5074355;28;20359;-19
2023/08/27 06:38:32;;;;;;;0.55;0.55;;;;;;;;;;5076258;28;20030;-22
2023/08/27 06:40:59;;;;;;;0.80;0.80;;;;;;;;;;5078261;28;20035;-27
2023/08/27 06:43:25;;;;;;;1.05;1.05;;;;;;;;;;5077853;28;20096;-22
2023/08/27 06:45:51;;;;;;;0.50;0.50;;;;;;;;;;5077887;28;20023;-22
2023/08/27 06:48:18;;;;;;;0.80;0.80;;;;;;;;;;5077859;28;20340;-24
2023/08/27 06:50:44;;;;;;;0.70;0.70;;;;;;;;;;5077832;28;20082;-22
2023/08/27 06:53:11;;;;;;;0.70;0.70;;;;;;;;;;5077714;28;20020;-23
2023/08/27 06:55:37;;;;;;;0.90;0.90;;;;;;;;;;5077475;28;20057;-29
2023/08/27 06:58:03;;;;;;;0.73;0.73;;;;;;;;;;5077701;28;20117;-22
2023/08/27 07:00:29;;;;;;;0.88;0.88;;;;;;;;;;5077859;28;20025;-21
2023/08/27 07:02:55;;;;;;;1.00;1.00;;;;;;;;;;5077478;28;20558;-19
2023/08/27 07:05:21;;;;;;;0.88;0.88;;;;;;;;;;5077394;28;20063;-21
2023/08/27 07:07:48;;;;;;;0.60;0.60;;;;;;;;;;5077765;28;20024;-23
2023/08/27 07:10:14;;;;;;;0.73;0.65;;;;;;;;;;5077412;28;20143;-25
2023/08/27 07:12:40;;;;;;;0.60;0.60;;;;;;;;;;5077341;28;20031;-20
2023/08/27 07:15:07;;;;;;;0.70;0.70;;;;;;;;;;5077542;28;20405;-26
2023/08/27 07:17:34;;;;;;;0.90;0.90;;;;;;;;;;5077235;28;20028;-23
2023/08/27 07:20:00;;;;;;;0.70;0.70;;;;;;;;;;5077264;28;20024;-23
2023/08/27 07:22:26;;;;;;;0.70;0.70;;;;;;;;;;5077415;28;20394;-20
2023/08/27 07:24:53;;;;;;;0.80;0.80;;;;;;;;;;5077464;28;20108;-22
2023/08/27 07:27:19;;;;;;;0.60;0.60;;;;;;;;;;5077156;28;20024;-24
2023/08/27 07:29:45;;;;;;;0.80;0.80;;;;;;;;;;5077059;28;20047;-22
2023/08/27 07:32:11;;;;;;;0.80;0.80;;;;;;;;;;5076938;28;20095;-25
2023/08/27 07:34:37;;;;;;;0.80;0.80;;;;;;;;;;5076951;28;20104;-23
2023/08/27 07:37:03;;;;;;;0.80;0.80;;;;;;;;;;5076902;28;20052;-24
2023/08/27 07:39:30;;;;;;;0.65;0.65;;;;;;;;;;5077125;28;20031;-23
2023/08/27 07:41:56;;;;;;;1.20;0.70;;;;;;;;;;5077021;28;20017;-22
2023/08/27 07:44:22;;;;;;;0.73;0.73;;;;;;;;;;5077122;28;20378;-23
2023/08/27 07:46:48;;;;;;;0.80;0.80;;;;;;;;;;5077343;28;20394;-21
2023/08/27 07:49:14;;;;;;;0.63;0.63;;;;;;;;;;5076369;28;20029;-22
2023/08/27 07:51:40;;;;;;;0.63;0.63;;;;;;;;;;5076663;28;20040;-22
2023/08/27 07:54:06;;;;;;;0.70;0.70;;;;;;;;;;5076826;28;20031;-21
2023/08/27 07:56:32;;;;;;;0.80;0.80;;;;;;;;;;5076387;28;20049;-23
2023/08/27 07:58:59;;;;;;;1.08;0.82;;;;;;;;;;5077071;28;20035;-23
2023/08/27 08:01:26;;;;;;;0.80;0.80;;;;;;;;;;5076800;28;20356;-25
2023/08/27 08:03:52;;;;;;;0.70;0.70;;;;;;;;;;5076400;28;20097;-22
2023/08/27 08:06:18;;;;;;;0.82;0.82;;;;;;;;;;5076418;28;20028;-21
2023/08/27 08:08:44;;;;;;;0.93;0.88;;;;;;;;;;5076328;28;20029;-23
2023/08/27 08:11:11;;;;;;;0.70;0.70;;;;;;;;;;5076297;28;20039;-23
2023/08/27 08:13:39;;;;;;;1.10;1.10;;;;;;;;;;5076162;28;20108;-22
2023/08/27 08:16:06;;;;;;;0.98;0.85;;;;;;;;;;5076396;28;20036;-20
2023/08/27 08:18:33;;;;;;;0.80;0.80;;;;;;;;;;5076441;28;20459;-21
2023/08/27 08:21:00;;;;;;;0.60;0.60;;;;;;;;;;5076095;28;20036;-24
2023/08/27 08:23:26;;;;;;;0.80;0.80;;;;;;;;;;5076252;28;20016;-21
2023/08/27 08:25:52;;;;;;;1.02;1.02;;;;;;;;;;5076254;28;20111;-23
2023/08/27 08:28:18;;;;;;;0.70;0.70;;;;;;;;;;5076005;28;20028;-20
2023/08/27 08:30:46;;;;;;;0.60;0.60;;;;;;;;;;5076205;28;20024;-20
2023/08/27 08:33:12;;;;;;;3.95;1.48;;;;;;;;;;5076019;28;20048;-20
2023/08/27 08:35:38;;;;;;;1.00;0.90;;;;;;;;;;5075740;28;20025;-25
2023/08/27 08:38:04;;;;;;;0.70;0.70;;;;;;;;;;5075804;28;20417;-22
2023/08/27 08:40:31;;;;;;;1.02;1.02;;;;;;;;;;5075737;28;20092;-18
2023/08/27 08:43:00;;;;;;;0.90;0.90;;;;;;;;;;5075858;28;20418;-21
2023/08/27 08:45:26;;;;;;;1.05;0.93;;;;;;;;;;5075897;28;20079;-19
2023/08/27 08:47:53;;;;;;;0.88;0.88;;;;;;;;;;5075553;28;20048;-23
2023/08/27 08:50:21;;;;;;;0.82;0.82;;;;;;;;;;5075796;28;20037;-18
2023/08/27 08:52:49;;;;;;;0.80;0.80;;;;;;;;;;5075371;28;20024;-25
2023/08/27 08:55:15;;;;;;;1.00;1.00;;;;;;;;;;5075137;28;20052;-21
2023/08/27 08:57:45;;;;;;;0.80;0.80;;;;;;;;;;5075357;28;20021;-21
2023/08/27 09:00:12;;;;;;;0.90;0.90;;;;;;;;;;5074621;28;20021;-19
2023/08/27 09:02:39;;;;;;;0.80;0.80;;;;;;;;;;5075324;28;20024;-19
2023/08/27 09:05:06;;;;;;;1.05;1.00;;;;;;;;;;5074294;28;20463;-20
2023/08/27 09:07:33;;;;;;;0.93;0.88;;;;;;;;;;5075474;28;20089;-21
2023/08/27 09:10:00;;;;;;;0.90;0.90;;;;;;;;;;5074166;28;20020;-22
2023/08/27 09:12:27;;;;;;;1.00;1.00;;;;;;;;;;5075008;28;20515;-22
2023/08/27 09:14:53;;;;;;;0.80;0.80;;;;;;;;;;5075367;28;20471;-22
2023/08/27 09:17:20;;;;;;;1.35;0.82;;;;;;;;;;5075209;28;20025;-24
2023/08/27 09:19:46;;;;;;;0.80;0.80;;;;;;;;;;5074992;28;20082;-19
2023/08/27 09:22:14;;;;;;;0.82;0.82;;;;;;;;;;5074868;28;20035;-19
2023/08/27 09:24:40;;;;;;;1.02;1.02;;;;;;;;;;5075168;28;20383;-18
2023/08/27 09:27:06;;;;;;;0.88;0.88;;;;;;;;;;5075398;28;20047;-19
2023/08/27 09:29:33;;;;;;;1.20;1.00;;;;;;;;;;5074828;28;20043;-20
2023/08/27 09:32:00;;;;;;;0.88;0.88;;;;;;;;;;5075016;28;20078;-23
2023/08/27 09:34:26;;;;;;;0.90;0.90;;;;;;;;;;5075037;28;20032;-21
2023/08/27 09:36:52;;;;;;;1.42;1.10;;;;;;;;;;5074970;28;20407;-23
2023/08/27 09:39:19;;;;;;;1.73;1.35;;;;;;;;;;5074745;28;20017;-21
2023/08/27 09:41:46;;;;;;;1.20;1.10;;;;;;;;;;5074688;28;20029;-23
2023/08/27 09:44:14;;;;;;;0.90;0.90;;;;;;;;;;5075171;28;20025;-22
2023/08/27 09:46:42;;;;;;;0.90;0.90;;;;;;;;;;5074664;28;20028;-21
2023/08/27 09:49:08;;;;;;;0.88;0.88;;;;;;;;;;5074547;28;20475;-19
2023/08/27 09:51:35;;;;;;;0.70;0.70;;;;;;;;;;5074550;28;20161;-22
2023/08/27 09:54:12;;;;;;;0.95;0.90;;;;;;;;;;5074433;28;20032;-20
2023/08/27 09:56:38;;;;;;;0.93;0.93;;;;;;;;;;5074231;28;20041;-23
2023/08/27 09:59:05;;;;;;;1.00;1.00;;;;;;;;;;5074508;28;20055;-23
2023/08/27 10:01:34;;;;;;;0.90;0.90;;;;;;;;;;5074472;28;20432;-23
2023/08/27 10:04:09;;;;;;;1.13;1.05;;;;;;;;;;5074402;28;20082;-21
2023/08/27 10:06:38;;;;;;;0.70;0.70;;;;;;;;;;5074449;28;20024;-20
2023/08/27 10:09:05;;;;;;;1.00;1.00;;;;;;;;;;5074436;28;20025;-24
2023/08/27 10:11:33;;;;;;;1.10;1.10;;;;;;;;;;5073971;28;20474;-28
2023/08/27 10:13:59;;;;;;;0.90;0.90;;;;;;;;;;5078411;28;20032;-23
2023/08/27 10:16:26;;;;;;;1.00;0.98;;;;;;;;;;5078420;28;20032;-23
2023/08/27 10:18:53;;;;;;;0.80;0.80;;;;;;;;;;5078442;28;20074;-23
2023/08/27 10:21:19;;;;;;;0.90;0.90;;;;;;;;;;5078659;28;20027;-21
2023/08/27 10:23:47;;;;;;;0.73;0.73;;;;;;;;;;5078245;28;20024;-21
2023/08/27 10:26:14;;;;;;;1.00;1.00;;;;;;;;;;5078315;28;20032;-22
2023/08/27 10:28:41;;;;;;;0.77;0.77;;;;;;;;;;5078276;28;20046;-21
2023/08/27 10:31:07;;;;;;;1.10;1.00;;;;;;;;;;5078223;28;20035;-24
2023/08/27 10:33:34;;;;;;;1.35;1.25;;;;;;;;;;5078077;28;20048;-20
2023/08/27 10:36:03;;;;;;;0.80;0.80;;;;;;;;;;5078085;28;20034;-22
2023/08/27 10:38:31;;;;;;;0.80;0.80;;;;;;;;;;5078325;28;20044;-22
2023/08/27 10:40:57;;;;;;;0.95;0.95;;;;;;;;;;5077995;28;20474;-22
2023/08/27 10:43:24;;;;;;;0.90;0.90;;;;;;;;;;5077891;28;20028;-23
2023/08/27 10:45:51;;;;;;;0.95;0.90;;;;;;;;;;5077909;28;20024;-21
2023/08/27 10:48:18;;;;;;;0.70;0.70;;;;;;;;;;5077785;28;20044;-21
2023/08/27 10:50:48;;;;;;;2.28;1.23;;;;;;;;;;5077800;28;20024;-22
2023/08/27 10:53:15;;;;;;;0.95;0.95;;;;;;;;;;5077718;28;20359;-19
2023/08/27 10:55:45;;;;;;;1.00;1.00;;;;;;;;;;5077555;28;20044;-20
2023/08/27 10:58:18;;;;;;;1.00;0.90;;;;;;;;;;5077647;28;20017;-27
2023/08/27 11:01:03;;;;;;;1.00;1.00;;;;;;;;;;5077932;28;20029;-20
2023/08/27 11:03:48;;;;;;;1.13;1.10;;;;;;;;;;5077752;28;20325;-23
2023/08/27 11:06:15;;;;;;;0.98;0.98;;;;;;;;;;5077546;28;20078;-21
2023/08/27 11:08:41;;;;;;;0.90;0.90;;;;;;;;;;5077473;28;20028;-20
2023/08/27 11:11:14;;;;;;;0.75;0.75;;;;;;;;;;5077705;28;20355;-23
2023/08/27 11:13:46;;;;;;;1.05;1.00;;;;;;;;;;5077348;28;20025;-20
2023/08/27 11:16:13;;;;;;;0.70;0.70;;;;;;;;;;5077322;28;20060;-22
2023/08/27 11:18:48;;;;;;;1.17;1.08;;;;;;;;;;5077289;28;20031;-31
2023/08/27 11:21:26;;;;;;;1.42;0.90;;;;;;;;;;5077238;28;20028;-25
2023/08/27 11:24:18;;;;;;;0.77;0.77;;;;;;;;;;5075430;28;20028;-22
2023/08/27 11:26:47;;;;;;;0.80;0.80;;;;;;;;;;5074682;28;20032;-24
2023/08/27 11:29:14;;;;;;;0.98;0.98;;;;;;;;;;5077411;28;20020;-26
2023/08/27 11:31:40;;;;;;;0.88;0.70;;;;;;;;;;5077069;28;20029;-21
2023/08/27 11:34:07;;;;;;;1.20;1.10;;;;;;;;;;5076954;28;20048;-25
2023/08/27 11:36:33;;;;;;;0.85;0.85;;;;;;;;;;5076925;28;20048;-23
2023/08/27 11:39:01;;;;;;;0.80;0.80;;;;;;;;;;5076957;28;20459;-21
2023/08/27 11:41:37;;;;;;;0.65;0.65;;;;;;;;;;5075889;28;20364;-25
2023/08/27 11:44:04;;;;;;;0.82;0.82;;;;;;;;;;5076793;28;20020;-20
2023/08/27 11:46:31;;;;;;;0.80;0.80;;;;;;;;;;5076815;28;20024;-23
2023/08/27 11:48:57;;;;;;;0.73;0.73;;;;;;;;;;5077039;28;20029;-20
2023/08/27 11:51:24;;;;;;;1.00;1.00;;;;;;;;;;5077001;28;20113;-23
2023/08/27 11:53:53;;;;;;;0.93;0.93;;;;;;;;;;5076568;28;20036;-23
2023/08/27 11:56:20;;;;;;;0.95;0.95;;;;;;;;;;5076437;28;20041;-22
2023/08/27 11:58:52;;;;;;;0.93;0.93;;;;;;;;;;5076833;28;20029;-24
2023/08/27 12:01:20;;;;;;;0.82;0.82;;;;;;;;;;5076864;28;20021;-21
2023/08/27 12:03:48;;;;;;;1.20;1.10;;;;;;;;;;5076435;28;20043;-25
2023/08/27 12:06:15;;;;;;;0.82;0.82;;;;;;;;;;5076436;28;20459;-22
2023/08/27 12:08:41;;;;;;;0.90;0.90;;;;;;;;;;5076335;28;20029;-23
2023/08/27 12:11:07;;;;;;;1.13;1.02;;;;;;;;;;5076305;28;20063;-20
2023/08/27 12:13:34;;;;;;;1.00;1.00;;;;;;;;;;5076491;28;20104;-25
2023/08/27 12:16:03;;;;;;;1.00;1.00;;;;;;;;;;5076178;28;20078;-24
2023/08/27 12:18:35;;;;;;;1.10;1.00;;;;;;;;;;5076963;28;20021;-24
2023/08/27 12:21:07;;;;;;;1.52;1.00;;;;;;;;;;5076162;28;20082;-22
2023/08/27 12:23:34;;;;;;;1.45;1.35;;;;;;;;;;5076306;28;20035;-21
2023/08/27 12:26:02;;;;;;;0.93;0.93;;;;;;;;;;5076063;28;20028;-22
2023/08/27 12:28:29;;;;;;;1.10;1.10;;;;;;;;;;5075997;28;20020;-26
2023/08/27 12:30:59;;;;;;;1.20;1.20;;;;;;;;;;5075886;28;20028;-23
2023/08/27 12:33:42;;;;;;;1.20;1.20;;;;;;;;;;5076169;28;20508;-25
2023/08/27 12:36:08;;;;;;;1.00;1.00;;;;;;;;;;5074712;28;20028;-24
2023/08/27 12:38:35;;;;;;;1.42;1.15;;;;;;;;;;5075742;28;20032;-21
2023/08/27 12:41:01;;;;;;;1.20;1.20;;;;;;;;;;5076056;28;20509;-21
2023/08/27 12:43:28;;;;;;;0.98;0.98;;;;;;;;;;5075626;28;20364;-24
2023/08/27 12:45:54;;;;;;;1.13;1.13;;;;;;;;;;5075631;28;20105;-23
2023/08/27 12:48:21;;;;;;;1.05;1.00;;;;;;;;;;5075554;28;20028;-23
2023/08/27 12:50:47;;;;;;;1.42;1.10;;;;;;;;;;5075788;28;20033;-22
2023/08/27 12:53:13;;;;;;;1.40;1.30;;;;;;;;;;5075407;28;20032;-19
2023/08/27 12:55:40;;;;;;;2.05;1.42;;;;;;;;;;5075341;28;20044;-20
2023/08/27 12:58:06;;;;;;;1.20;1.20;;;;;;;;;;5074397;28;20032;-23
2023/08/27 13:00:32;;;;;;;1.10;1.00;;;;;;;;;;5075591;28;20024;-20
2023/08/27 13:02:58;;;;;;;0.98;0.98;;;;;;;;;;5075239;28;20021;-23
2023/08/27 13:05:24;;;;;;;0.90;0.90;;;;;;;;;;5075549;28;20359;-23
2023/08/27 13:07:50;;;;;;;1.30;1.27;;;;;;;;;;5075161;28;20052;-23
2023/08/27 13:10:17;;;;;;;1.00;0.90;;;;;;;;;;5075150;28;20107;-20
2023/08/27 13:12:43;;;;;;;1.10;1.10;;;;;;;;;;5075054;28;20031;-24
2023/08/27 13:15:09;;;;;;;1.20;1.10;;;;;;;;;;5075023;28;20379;-21
2023/08/27 13:17:35;;;;;;;0.95;0.95;;;;;;;;;;5074034;28;20025;-24
2023/08/27 13:20:01;;;;;;;1.10;1.10;;;;;;;;;;5075025;28;20471;-24
2023/08/27 13:22:27;;;;;;;1.00;1.00;;;;;;;;;;5075085;28;20029;-22
2023/08/27 13:24:53;;;;;;;1.20;1.20;;;;;;;;;;5074887;28;20034;-27
2023/08/27 13:27:19;;;;;;;1.10;1.10;;;;;;;;;;5074952;28;20025;-21
2023/08/27 13:29:46;;;;;;;0.95;0.95;;;;;;;;;;5074838;28;20024;-19
2023/08/27 13:32:12;;;;;;;1.35;1.25;;;;;;;;;;5075024;28;20024;-20
2023/08/27 13:34:38;;;;;;;1.10;1.10;;;;;;;;;;5075072;28;20054;-20
2023/08/27 13:37:04;;;;;;;1.00;1.00;;;;;;;;;;5074950;28;20033;-21
2023/08/27 13:39:30;;;;;;;0.98;0.98;;;;;;;;;;5075010;28;20024;-27
2023/08/27 13:42:02;;;;;;;1.52;1.05;;;;;;;;;;5074623;28;20020;-23
2023/08/27 13:44:28;;;;;;;1.63;1.30;;;;;;;;;;5074704;28;20029;-23
2023/08/27 13:46:54;;;;;;;0.93;0.93;;;;;;;;;;5074305;28;20085;-20
2023/08/27 13:49:20;;;;;;;1.50;1.40;;;;;;;;;;5074645;28;20063;-19
2023/08/27 13:51:47;;;;;;;1.20;1.10;;;;;;;;;;5074611;28;20051;-21
2023/08/27 13:54:13;;;;;;;1.25;1.15;;;;;;;;;;5074513;28;20028;-22
2023/08/27 13:56:39;;;;;;;1.00;1.00;;;;;;;;;;5075326;28;20120;-20
2023/08/27 13:59:06;;;;;;;1.13;1.13;;;;;;;;;;5074763;28;20143;-21
2023/08/27 14:01:32;;;;;;;1.30;1.30;;;;;;;;;;5074767;28;20036;-19
2023/08/27 14:03:59;;;;;;;0.95;0.95;;;;;;;;;;5074424;28;20023;-25
2023/08/27 14:06:25;;;;;;;1.15;1.15;;;;;;;;;;5074752;28;20024;-23
2023/08/27 14:08:52;;;;;;;1.08;1.08;;;;;;;;;;5074729;28;20333;-22
2023/08/27 14:11:18;;;;;;;0.90;0.90;;;;;;;;;;5074721;28;20053;-20
2023/08/27 14:13:44;;;;;;;0.85;0.85;;;;;;;;;;5074363;28;20089;-19
2023/08/27 14:16:14;;;;;;;1.13;1.13;;;;;;;;;;5074592;28;20052;-22
2023/08/27 14:18:40;;;;;;;1.27;1.17;;;;;;;;;;5074336;28;20025;-21
2023/08/27 14:21:07;;;;;;;0.80;0.80;;;;;;;;;;5074620;28;20040;-23
2023/08/27 14:23:33;;;;;;;1.05;1.02;;;;;;;;;;5074336;28;20055;-28
2023/08/27 14:26:00;;;;;;;0.98;0.98;;;;;;;;;;5074360;28;20021;-23
2023/08/27 14:28:26;;;;;;;0.95;0.95;;;;;;;;;;5074582;28;20052;-25
2023/08/27 14:30:52;;;;;;;0.90;0.90;;;;;;;;;;5074236;28;20035;-22
2023/08/27 14:33:18;;;;;;;0.80;0.80;;;;;;;;;;5074154;28;20032;-22
2023/08/27 14:35:44;;;;;;;0.98;0.98;;;;;;;;;;5074124;28;20029;-20
2023/08/27 14:38:10;;;;;;;0.63;0.63;;;;;;;;;;5074968;28;20025;-20
2023/08/27 14:40:36;;;;;;;1.05;1.00;;;;;;;;;;5074420;28;20029;-20
2023/08/27 14:43:03;;;;;;;0.95;0.95;;;;;;;;;;5074545;28;20025;-27